Time;durP1;ratioP1;P1;durP2;ratioP2;P2;SDS_P1;SDS_P2;PMS_P1;PMS_P2;Temp;Humidity;BMP_temperature;BMP_pressure;BME280_temperature;BME280_humidity;BME280_pressure;Samples;Min_cycle;Max_cycle;Signal;HPM_P1;HPM_P2
2023/06/06 00:01:15;;;;;;;11.20;6.82;;;435.90;2355.20;;;;;;5010409;28;20021;-54
2023/06/06 00:03:41;;;;;;;7.95;6.47;;;436.10;2355.20;;;;;;5010138;28;20025;-55
2023/06/06 00:06:07;;;;;;;14.05;5.97;;;460.80;2073.60;;;;;;5009958;28;20148;-55
2023/06/06 00:08:35;;;;;;;9.75;6.50;;;460.90;2380.80;;;;;;5015646;28;20073;-54
2023/06/06 00:11:00;;;;;;;9.77;5.90;;;460.90;2380.80;;;;;;5010079;28;20038;-53
2023/06/06 00:13:31;;;;;;;10.18;6.07;;;460.90;2380.80;;;;;;5010244;28;20068;-59
2023/06/06 00:15:58;;;;;;;9.90;5.53;;;461.00;2380.80;;;;;;5030074;28;20472;-59
2023/06/06 00:18:27;;;;;;;13.40;6.22;;;461.00;2380.80;;;;;;5015291;28;20034;-55
2023/06/06 00:20:54;;;;;;;7.78;5.68;;;460.90;2380.80;;;;;;5010064;28;20026;-54
2023/06/06 00:23:21;;;;;;;8.73;6.10;;;461.00;2380.80;;;;;;5009827;28;20030;-54
2023/06/06 00:25:49;;;;;;;7.75;6.10;;;461.00;2380.80;;;;;;5009926;28;20036;-55
2023/06/06 00:28:15;;;;;;;7.45;5.85;;;461.10;2380.80;;;;;;5009811;28;20411;-55
2023/06/06 00:30:41;;;;;;;8.15;5.70;;;461.10;2380.80;;;;;;5016580;28;20032;-55
2023/06/06 00:33:07;;;;;;;8.70;5.70;;;461.00;2380.80;;;;;;5029448;28;20109;-58
2023/06/06 00:35:33;;;;;;;11.20;6.40;;;461.00;2380.80;;;;;;5029081;28;20108;-60
2023/06/06 00:37:59;;;;;;;12.85;6.40;;;461.00;2380.80;;;;;;5024114;28;20454;-56
2023/06/06 00:40:25;;;;;;;9.93;6.78;;;461.00;2380.80;;;;;;5021600;28;20113;-60
2023/06/06 00:42:51;;;;;;;7.57;5.60;;;461.00;2380.80;;;;;;5029196;28;20048;-56
2023/06/06 00:45:17;;;;;;;10.38;6.60;;;461.00;2380.80;;;;;;5019050;28;20033;-55
2023/06/06 00:47:44;;;;;;;8.68;6.68;;;460.90;2380.80;;;;;;5026177;28;20075;-52
2023/06/06 00:50:12;;;;;;;7.40;6.25;;;460.90;2380.80;;;;;;5029287;28;20037;-60
2023/06/06 00:52:40;;;;;;;8.23;6.00;;;460.90;2380.80;;;;;;5029244;28;20093;-59
2023/06/06 00:55:07;;;;;;;8.15;6.70;;;460.90;2380.80;;;;;;5029196;28;20036;-56
2023/06/06 00:57:35;;;;;;;7.03;6.25;;;460.90;2380.80;;;;;;5028690;28;20057;-61
2023/06/06 01:00:05;;;;;;;12.70;6.40;;;461.00;2380.80;;;;;;5028856;28;20387;-58
2023/06/06 01:02:37;;;;;;;11.52;6.03;;;461.00;2380.80;;;;;;5026722;28;20384;-55
2023/06/06 01:05:03;;;;;;;8.00;6.10;;;461.10;2380.80;;;;;;5012974;28;20125;-54
2023/06/06 01:07:29;;;;;;;11.57;6.40;;;461.00;2380.80;;;;;;5009273;28;20108;-54
2023/06/06 01:09:55;;;;;;;8.35;6.25;;;461.10;2380.80;;;;;;5008995;28;20148;-53
2023/06/06 01:12:30;;;;;;;9.55;6.70;;;461.10;2380.80;;;;;;5028298;28;20033;-54
2023/06/06 01:15:16;;;;;;;10.20;6.65;;;461.10;2380.80;;;;;;5029244;28;20022;-54
2023/06/06 01:17:46;;;;;;;8.50;6.03;;;461.10;2304.00;;;;;;5028836;28;20104;-55
2023/06/06 01:20:12;;;;;;;8.82;6.10;;;461.10;2380.80;;;;;;5028823;28;20052;-58
2023/06/06 01:22:39;;;;;;;7.82;6.35;;;461.10;2380.80;;;;;;5029060;28;20029;-55
2023/06/06 01:25:06;;;;;;;10.57;6.47;;;461.20;2176.00;;;;;;5028719;28;20018;-53
2023/06/06 01:27:33;;;;;;;10.02;6.65;;;461.20;2380.80;;;;;;5028991;28;20025;-55
2023/06/06 01:30:00;;;;;;;10.23;6.88;;;461.20;2022.40;;;;;;5028983;28;20065;-55
2023/06/06 01:32:48;;;;;;;12.32;6.70;;;461.20;2124.80;;;;;;5028943;28;20030;-55
2023/06/06 01:35:25;;;;;;;8.45;6.13;;;461.20;2278.40;;;;;;5029112;28;20036;-55
2023/06/06 01:38:16;;;;;;;11.43;7.03;;;461.20;2380.80;;;;;;5028385;28;20026;-55
2023/06/06 01:40:46;;;;;;;8.63;6.60;;;461.10;2380.80;;;;;;5028330;28;20407;-55
2023/06/06 01:43:15;;;;;;;9.48;6.65;;;461.00;2380.80;;;;;;5030294;28;20483;-55
2023/06/06 01:45:42;;;;;;;12.88;7.18;;;461.00;2380.80;;;;;;5032532;28;20108;-55
2023/06/06 01:48:09;;;;;;;20.73;7.75;;;460.90;2380.80;;;;;;5032569;28;20048;-54
2023/06/06 01:50:35;;;;;;;8.07;6.70;;;460.90;2380.80;;;;;;5032612;28;20035;-54
2023/06/06 01:53:00;;;;;;;18.20;6.68;;;461.00;2380.80;;;;;;5032723;28;20026;-55
2023/06/06 01:55:26;;;;;;;8.98;7.10;;;461.00;2380.80;;;;;;5032566;28;20033;-60
2023/06/06 01:57:52;;;;;;;8.88;6.90;;;461.10;2380.80;;;;;;5032571;28;20036;-54
2023/06/06 02:00:19;;;;;;;8.07;6.90;;;461.10;2380.80;;;;;;5032532;28;20026;-59
2023/06/06 02:02:45;;;;;;;11.05;6.85;;;461.10;2380.80;;;;;;5032030;28;20021;-55
2023/06/06 02:05:11;;;;;;;11.75;7.15;;;461.20;2380.80;;;;;;5032332;28;20483;-55
2023/06/06 02:07:37;;;;;;;11.38;7.72;;;461.20;2380.80;;;;;;5032387;28;20017;-54
2023/06/06 02:10:07;;;;;;;10.00;7.95;;;461.20;2380.80;;;;;;5032146;28;20037;-55
2023/06/06 02:12:33;;;;;;;10.18;7.00;;;461.10;2380.80;;;;;;5032083;28;20025;-55
2023/06/06 02:14:59;;;;;;;14.30;7.40;;;461.00;2380.80;;;;;;5032390;28;20060;-54
2023/06/06 02:17:26;;;;;;;11.30;8.13;;;460.90;2380.80;;;;;;5032211;28;20033;-55
2023/06/06 02:19:52;;;;;;;8.73;6.30;;;461.00;2380.80;;;;;;5031855;28;20033;-59
2023/06/06 02:22:18;;;;;;;8.45;6.00;;;461.10;2380.80;;;;;;5032356;28;20025;-55
2023/06/06 02:24:43;;;;;;;12.40;7.20;;;461.10;2380.80;;;;;;5032009;28;20025;-55
2023/06/06 02:27:09;;;;;;;11.10;7.65;;;461.10;2380.80;;;;;;5031957;28;20022;-55
2023/06/06 02:29:38;;;;;;;12.93;6.13;;;461.10;2380.80;;;;;;5032071;28;20026;-61
2023/06/06 02:32:04;;;;;;;10.40;7.40;;;461.10;2380.80;;;;;;5031421;28;20087;-56
2023/06/06 02:34:30;;;;;;;9.30;7.28;;;461.10;2380.80;;;;;;5032092;28;20686;-55
2023/06/06 02:36:56;;;;;;;10.40;7.57;;;461.00;2380.80;;;;;;5031645;28;20025;-55
2023/06/06 02:39:23;;;;;;;8.70;6.32;;;461.10;2380.80;;;;;;5032068;28;20029;-54
2023/06/06 02:41:50;;;;;;;12.60;7.82;;;461.10;2380.80;;;;;;5031556;28;20053;-53
2023/06/06 02:44:17;;;;;;;12.02;7.05;;;461.10;2380.80;;;;;;5031747;28;20026;-55
2023/06/06 02:46:43;;;;;;;9.38;7.47;;;461.10;2380.80;;;;;;5031265;28;20456;-61
2023/06/06 02:49:09;;;;;;;9.88;7.47;;;461.10;2022.40;;;;;;5031655;28;20045;-55
2023/06/06 02:51:36;;;;;;;10.63;7.85;;;461.10;2380.80;;;;;;5031403;28;20026;-61
2023/06/06 02:54:02;;;;;;;9.13;7.20;;;461.10;2380.80;;;;;;5030942;28;20359;-55
2023/06/06 02:56:28;;;;;;;9.80;8.10;;;461.20;2380.80;;;;;;5031119;28;20021;-55
2023/06/06 02:58:54;;;;;;;11.32;7.47;;;461.20;2380.80;;;;;;5031186;28;20053;-55
2023/06/06 03:01:23;;;;;;;9.70;7.13;;;461.20;2380.80;;;;;;5031386;28;20076;-55
2023/06/06 03:03:49;;;;;;;12.23;8.40;;;461.20;2380.80;;;;;;5031391;28;20402;-54
2023/06/06 03:06:18;;;;;;;10.43;8.35;;;461.20;2380.80;;;;;;5031067;28;20025;-56
2023/06/06 03:08:44;;;;;;;13.73;7.75;;;461.20;2380.80;;;;;;5030851;28;20111;-60
2023/06/06 03:11:10;;;;;;;11.20;8.68;;;461.20;2073.60;;;;;;5030729;28;20502;-55
2023/06/06 03:13:37;;;;;;;11.60;7.93;;;461.10;2278.40;;;;;;5031053;28;20029;-60
2023/06/06 03:16:02;;;;;;;10.55;8.00;;;461.10;2380.80;;;;;;5031282;28;20021;-55
2023/06/06 03:18:28;;;;;;;12.90;8.27;;;461.00;2380.80;;;;;;5031196;28;20048;-61
2023/06/06 03:20:54;;;;;;;13.13;7.90;;;460.80;2380.80;;;;;;5030992;28;20053;-55
2023/06/06 03:23:21;;;;;;;12.05;7.80;;;460.80;2380.80;;;;;;5031029;28;20483;-57
2023/06/06 03:25:51;;;;;;;15.60;9.07;;;460.80;2380.80;;;;;;5031035;28;20045;-55
2023/06/06 03:28:18;;;;;;;12.77;9.43;;;460.80;2380.80;;;;;;5030863;28;20029;-55
2023/06/06 03:30:48;;;;;;;16.08;8.38;;;460.80;2380.80;;;;;;5030729;28;20045;-53
2023/06/06 03:33:15;;;;;;;14.15;8.95;;;460.80;2380.80;;;;;;5030712;28;20036;-59
2023/06/06 03:35:41;;;;;;;17.80;9.50;;;460.80;2380.80;;;;;;5031026;28;20431;-55
2023/06/06 03:38:07;;;;;;;17.33;8.95;;;460.90;2380.80;;;;;;5030918;28;20463;-54
2023/06/06 03:40:33;;;;;;;11.35;8.02;;;460.90;2380.80;;;;;;5030391;28;20045;-55
2023/06/06 03:42:59;;;;;;;9.60;8.38;;;461.10;2380.80;;;;;;5030272;28;20029;-53
2023/06/06 03:45:25;;;;;;;11.98;7.43;;;461.20;2380.80;;;;;;5030438;28;20384;-54
2023/06/06 03:47:51;;;;;;;12.00;8.02;;;461.40;2329.60;;;;;;5030498;28;20514;-54
2023/06/06 03:50:21;;;;;;;12.88;8.45;;;461.40;2380.80;;;;;;5030444;28;20037;-53
2023/06/06 03:52:47;;;;;;;11.73;8.20;;;461.40;2380.80;;;;;;5030594;28;20029;-54
2023/06/06 03:55:13;;;;;;;9.73;8.02;;;461.40;2380.80;;;;;;5030157;28;20022;-58
2023/06/06 03:57:39;;;;;;;10.77;8.65;;;461.40;2022.40;;;;;;5030252;28;20030;-55
2023/06/06 04:00:13;;;;;;;11.70;7.63;;;461.50;2380.80;;;;;;5030072;28;20022;-55
2023/06/06 04:02:40;;;;;;;8.45;7.00;;;461.70;2380.80;;;;;;5030039;28;20391;-55
2023/06/06 04:05:06;;;;;;;10.90;8.25;;;461.70;2380.80;;;;;;5030066;28;20022;-55
2023/06/06 04:07:33;;;;;;;11.50;7.95;;;486.40;2380.80;;;;;;5029400;28;20025;-60
2023/06/06 04:09:59;;;;;;;10.35;7.68;;;486.50;2380.80;;;;;;5030062;28;20038;-55
2023/06/06 04:12:25;;;;;;;9.50;7.40;;;486.60;2380.80;;;;;;5029540;28;20035;-56
2023/06/06 04:14:51;;;;;;;9.93;8.35;;;486.70;2380.80;;;;;;5029862;28;20100;-59
2023/06/06 04:17:18;;;;;;;12.20;9.30;;;486.80;2380.80;;;;;;5029568;28;20463;-55
2023/06/06 04:19:45;;;;;;;10.50;8.18;;;487.00;2380.80;;;;;;5029788;28;20025;-55
2023/06/06 04:22:11;;;;;;;9.90;7.57;;;487.20;2380.80;;;;;;5029546;28;20071;-55
2023/06/06 04:24:37;;;;;;;10.43;7.55;;;487.30;2380.80;;;;;;5030180;28;20022;-59
2023/06/06 04:27:03;;;;;;;8.10;6.95;;;512.00;2380.80;;;;;;5029489;28;20104;-60
2023/06/06 04:29:34;;;;;;;13.68;8.52;;;512.10;2380.80;;;;;;5029876;28;20029;-57
2023/06/06 04:32:01;;;;;;;10.63;7.32;;;512.30;2380.80;;;;;;5031536;28;20506;-58
2023/06/06 04:34:31;;;;;;;14.45;8.15;;;512.40;2380.80;;;;;;5033366;28;20071;-56
2023/06/06 04:37:03;;;;;;;9.95;8.18;;;512.10;2380.80;;;;;;5033489;28;20537;-55
2023/06/06 04:39:31;;;;;;;12.25;8.52;;;512.60;2380.80;;;;;;5029749;28;20026;-58
2023/06/06 04:41:58;;;;;;;15.30;8.80;;;512.40;2380.80;;;;;;5016704;28;20049;-55
2023/06/06 04:44:25;;;;;;;16.45;12.60;;;512.10;2380.80;;;;;;5028387;28;20423;-55
2023/06/06 04:46:52;;;;;;;14.20;9.98;;;487.10;2380.80;;;;;;5029787;28;20100;-55
2023/06/06 04:49:21;;;;;;;20.02;12.80;;;487.00;2380.80;;;;;;5029539;28;20027;-55
2023/06/06 04:51:47;;;;;;;15.30;10.60;;;487.00;2380.80;;;;;;5029815;28;20044;-55
2023/06/06 04:54:13;;;;;;;19.95;11.52;;;487.00;2380.80;;;;;;5029243;28;20021;-62
2023/06/06 04:56:40;;;;;;;17.52;10.73;;;486.80;2380.80;;;;;;5029662;28;20043;-60
2023/06/06 04:59:06;;;;;;;19.23;9.02;;;486.80;2380.80;;;;;;5029545;28;20021;-55
2023/06/06 05:01:36;;;;;;;14.82;10.18;;;486.80;2380.80;;;;;;5029081;28;20028;-55
2023/06/06 05:04:03;;;;;;;15.50;9.23;;;486.70;2380.80;;;;;;5028961;28;20112;-55
2023/06/06 05:06:31;;;;;;;12.25;8.15;;;486.60;2380.80;;;;;;5029418;28;20040;-54
2023/06/06 05:09:06;;;;;;;16.60;9.77;;;486.60;2380.80;;;;;;5029169;28;20104;-62
2023/06/06 05:11:32;;;;;;;17.38;10.10;;;486.80;2380.80;;;;;;5028984;28;20099;-55
2023/06/06 05:13:57;;;;;;;15.35;9.90;;;486.80;2380.80;;;;;;5029078;28;20014;-55
2023/06/06 05:16:23;;;;;;;14.05;9.30;;;486.80;2380.80;;;;;;5028882;28;20029;-55
2023/06/06 05:18:49;;;;;;;12.25;10.10;;;487.00;2380.80;;;;;;5028706;28;20025;-55
2023/06/06 05:21:15;;;;;;;14.25;8.45;;;487.20;2380.80;;;;;;5029547;28;20028;-54
2023/06/06 05:23:40;;;;;;;12.60;9.68;;;512.00;2380.80;;;;;;5029041;28;20483;-58
2023/06/06 05:26:06;;;;;;;12.85;8.45;;;512.40;2380.80;;;;;;5028840;28;20464;-54
2023/06/06 05:28:32;;;;;;;13.05;8.75;;;512.50;2380.80;;;;;;5029092;28;20028;-56
2023/06/06 05:30:58;;;;;;;10.93;8.57;;;512.80;2380.80;;;;;;5029021;28;20057;-57
2023/06/06 05:33:27;;;;;;;12.80;8.73;;;537.70;2406.40;;;;;;5028984;28;20455;-55
2023/06/06 05:35:55;;;;;;;16.52;9.15;;;538.10;2406.40;;;;;;5028571;28;20503;-55
2023/06/06 05:38:21;;;;;;;12.85;9.20;;;538.40;2406.40;;;;;;5028783;28;20026;-57
2023/06/06 05:40:47;;;;;;;14.70;9.23;;;538.40;2406.40;;;;;;5028587;28;20061;-61
2023/06/06 05:43:14;;;;;;;10.32;8.55;;;563.20;2432.00;;;;;;5028871;28;20028;-62
2023/06/06 05:45:40;;;;;;;13.25;8.07;;;;;;;;;;5028431;28;20025;-62
2023/06/06 05:48:06;;;;;;;16.58;9.40;;;;;;;;;;5028868;28;20013;-71
2023/06/06 05:50:32;;;;;;;16.70;9.70;;;;;;;;;;5028705;28;20360;-62
2023/06/06 05:52:59;;;;;;;13.98;9.52;;;;;;;;;;5029223;28;20375;-61
2023/06/06 05:55:29;;;;;;;14.80;11.10;;;;;;;;;;5028843;28;20025;-61
2023/06/06 05:57:55;;;;;;;19.88;9.80;;;;;;;;;;5027915;28;20022;-63
2023/06/06 06:00:28;;;;;;;14.65;9.90;;;;;;;;;;5028575;28;20036;-61
2023/06/06 06:02:56;;;;;;;15.18;10.32;;;;;;;;;;5016112;28;20030;-66
2023/06/06 06:05:28;;;;;;;18.08;11.43;;;;;;;;;;5028312;28;20018;-69
2023/06/06 06:08:00;;;;;;;15.85;10.07;;;;;;;;;;5028450;28;20060;-61
2023/06/06 06:10:30;;;;;;;15.53;10.63;;;;;;;;;;5028479;28;20121;-63
2023/06/06 06:12:56;;;;;;;20.50;11.07;;;;;;;;;;5028520;28;20022;-62
2023/06/06 06:15:23;;;;;;;19.08;12.25;;;;;;;;;;5028337;28;20025;-62
2023/06/06 06:17:49;;;;;;;16.55;12.20;;;;;;;;;;5028656;28;20030;-63
2023/06/06 06:20:16;;;;;;;16.92;10.95;;;;;;;;;;5028253;28;20024;-61
2023/06/06 06:22:42;;;;;;;17.85;11.48;;;;;;;;;;5028287;28;20029;-62
2023/06/06 06:25:12;;;;;;;21.38;11.65;;;;;;;;;;5028468;28;20046;-68
2023/06/06 06:27:38;;;;;;;14.57;10.75;;;;;;;;;;5028495;28;20013;-70
2023/06/06 06:30:04;;;;;;;19.55;10.55;;;;;;;;;;5030492;28;20522;-61
2023/06/06 06:32:35;;;;;;;18.60;11.48;;;;;;;;;;5031707;28;20470;-61
2023/06/06 06:35:02;;;;;;;18.40;11.48;;;589.50;2432.00;;;;;;5032165;28;20022;-64
2023/06/06 06:37:31;;;;;;;12.95;10.95;;;589.50;2432.00;;;;;;5032034;28;20026;-62
2023/06/06 06:40:00;;;;;;;18.73;12.57;;;614.50;2432.00;;;;;;5031722;28;20167;-61
2023/06/06 06:42:26;;;;;;;20.15;11.25;;;589.60;2432.00;;;;;;5031582;28;20058;-63
2023/06/06 06:44:52;;;;;;;21.30;11.20;;;589.60;2432.00;;;;;;5031606;28;20017;-62
2023/06/06 06:47:19;;;;;;;16.98;11.30;;;588.80;2432.00;;;;;;5031639;28;20026;-62
2023/06/06 06:49:45;;;;;;;18.85;12.07;;;588.90;2432.00;;;;;;5031309;28;20025;-62
2023/06/06 06:52:11;;;;;;;17.63;11.10;;;563.90;2432.00;;;;;;5031479;28;20040;-62
2023/06/06 06:54:54;;;;;;;13.90;11.02;;;563.80;2432.00;;;;;;5031468;28;20071;-62
2023/06/06 06:57:26;;;;;;;15.68;10.65;;;563.90;2432.00;;;;;;5031761;28;20475;-62
2023/06/06 06:59:52;;;;;;;15.15;9.73;;;563.80;2432.00;;;;;;5031612;28;20029;-61
2023/06/06 07:02:19;;;;;;;12.90;10.63;;;589.30;2432.00;;;;;;5031143;28;20025;-61
2023/06/06 07:04:47;;;;;;;14.45;9.70;;;614.60;2432.00;;;;;;5030690;28;20025;-62
2023/06/06 07:07:16;;;;;;;12.68;9.43;;;;;;;;;;5030954;28;20079;-61
2023/06/06 07:09:43;;;;;;;13.00;9.50;;;640.40;2432.00;;;;;;5031061;28;20104;-61
2023/06/06 07:12:10;;;;;;;12.98;9.57;;;;;;;;;;5031195;28;20037;-67
2023/06/06 07:14:36;;;;;;;11.75;9.70;;;666.50;2432.00;;;;;;5031013;28;20018;-62
2023/06/06 07:17:03;;;;;;;17.73;10.05;;;691.70;2432.00;;;;;;5031100;28;20026;-62
2023/06/06 07:19:28;;;;;;;12.38;10.32;;;691.80;2432.00;;;;;;5031326;28;20464;-70
2023/06/06 07:21:56;;;;;;;15.40;10.63;;;691.70;2432.00;;;;;;5030735;28;20036;-63
2023/06/06 07:24:22;;;;;;;17.38;10.57;;;691.30;2432.00;;;;;;5031008;28;20079;-65
2023/06/06 07:26:51;;;;;;;11.68;9.90;;;691.70;2432.00;;;;;;5031130;28;20065;-63
2023/06/06 07:29:17;;;;;;;12.55;11.10;;;717.20;2432.00;;;;;;5030865;28;20111;-61
2023/06/06 07:31:43;;;;;;;15.90;11.02;;;717.70;2432.00;;;;;;5030431;28;20030;-61
2023/06/06 07:34:09;;;;;;;12.93;11.20;;;743.00;2329.60;;;;;;5030857;28;20029;-61
2023/06/06 07:36:38;;;;;;;14.63;10.65;;;794.10;2201.60;;;;;;5030715;28;20030;-62
2023/06/06 07:39:04;;;;;;;14.43;12.35;;;845.40;1971.20;;;;;;5030816;28;20029;-62
2023/06/06 07:41:30;;;;;;;15.57;11.85;;;794.40;1996.80;;;;;;5030239;28;20193;-66
2023/06/06 07:43:56;;;;;;;14.05;12.45;;;793.80;2073.60;;;;;;5030400;28;20100;-63
2023/06/06 07:46:22;;;;;;;13.70;11.57;;;743.30;2150.40;;;;;;5030248;28;20036;-70
2023/06/06 07:48:50;;;;;;;15.32;12.88;;;742.80;2227.20;;;;;;5030490;28;20021;-62
2023/06/06 07:51:16;;;;;;;16.60;13.77;;;717.30;2278.40;;;;;;5030505;28;20498;-64
2023/06/06 07:53:43;;;;;;;19.67;12.88;;;666.40;2432.00;;;;;;5030400;28;20021;-68
2023/06/06 07:56:10;;;;;;;13.82;12.38;;;665.90;2432.00;;;;;;5030429;28;20033;-62
2023/06/06 07:58:46;;;;;;;15.23;13.43;;;640.80;2432.00;;;;;;5030298;28;20501;-64
2023/06/06 08:01:12;;;;;;;17.08;12.82;;;;;;;;;;5029806;28;20463;-61
2023/06/06 08:03:39;;;;;;;14.18;12.88;;;;;;;;;;5030189;28;20101;-62
2023/06/06 08:06:05;;;;;;;14.43;12.45;;;640.40;2432.00;;;;;;5029713;28;20025;-62
2023/06/06 08:08:32;;;;;;;16.92;12.52;;;615.30;2432.00;;;;;;5030134;28;20057;-67
2023/06/06 08:10:58;;;;;;;16.20;14.43;;;;;;;;;;5029861;28;20045;-62
2023/06/06 08:13:23;;;;;;;19.55;14.98;;;614.70;2432.00;;;;;;5029793;28;20044;-62
2023/06/06 08:15:50;;;;;;;16.50;14.70;;;;;;;;;;5030097;28;20068;-65
2023/06/06 08:18:16;;;;;;;18.10;15.25;;;;;;;;;;5030023;28;20025;-61
2023/06/06 08:20:42;;;;;;;17.67;14.23;;;;;;;;;;5029400;28;20017;-66
2023/06/06 08:23:09;;;;;;;17.55;14.75;;;;;;;;;;5029928;28;20584;-69
2023/06/06 08:25:39;;;;;;;24.67;15.80;;;614.50;2432.00;;;;;;5029195;28;20413;-70
2023/06/06 08:28:05;;;;;;;21.00;16.05;;;614.40;2432.00;;;;;;5029731;28;20025;-61
2023/06/06 08:30:31;;;;;;;18.27;15.52;;;589.50;2432.00;;;;;;5029248;28;20112;-64
2023/06/06 08:32:56;;;;;;;22.08;17.75;;;589.60;2432.00;;;;;;5029728;28;20125;-62
2023/06/06 08:35:24;;;;;;;17.13;13.95;;;589.30;2432.00;;;;;;5029241;28;20371;-64
2023/06/06 08:37:50;;;;;;;21.70;14.25;;;;;;;;;;5029657;28;20446;-64
2023/06/06 08:40:17;;;;;;;17.63;15.35;;;;;;;;;;5029255;28;20057;-61
2023/06/06 08:42:50;;;;;;;17.38;14.65;;;;;;;;;;5029337;28;20463;-61
2023/06/06 08:45:20;;;;;;;21.55;13.82;;;;;;;;;;5029551;28;20040;-61
2023/06/06 08:47:46;;;;;;;15.52;12.95;;;;;;;;;;5029361;28;20060;-70
2023/06/06 08:50:12;;;;;;;18.05;13.30;;;;;;;;;;5029076;28;20104;-61
2023/06/06 08:52:40;;;;;;;19.63;13.15;;;;;;;;;;5027403;28;20034;-69
2023/06/06 08:55:07;;;;;;;17.73;12.45;;;;;;;;;;5027025;28;20041;-61
2023/06/06 08:57:34;;;;;;;14.73;13.23;;;;;;;;;;5029120;28;20422;-65
2023/06/06 09:00:10;;;;;;;19.25;13.55;;;;;;;;;;5029190;28;20093;-62
2023/06/06 09:02:37;;;;;;;15.40;13.25;;;;;;;;;;5029107;28;20034;-62
2023/06/06 09:05:03;;;;;;;15.10;13.50;;;;;;;;;;5029059;28;20048;-62
2023/06/06 09:07:31;;;;;;;17.02;13.25;;;;;;;;;;5028737;28;20026;-62
2023/06/06 09:09:57;;;;;;;15.32;13.80;;;;;;;;;;5028750;28;20391;-70
2023/06/06 09:12:23;;;;;;;15.23;12.70;;;;;;;;;;5029401;28;20056;-70
2023/06/06 09:14:49;;;;;;;17.23;13.13;;;;;;;;;;5029034;28;20022;-68
2023/06/06 09:17:15;;;;;;;14.50;12.38;;;;;;;;;;5028803;28;20104;-62
2023/06/06 09:19:45;;;;;;;12.80;11.38;;;;;;;;;;5028734;28;21159;-62
2023/06/06 09:22:11;;;;;;;14.57;10.02;;;;;;;;;;5029011;28;20088;-62
2023/06/06 09:24:46;;;;;;;14.23;10.27;;;;;;;;;;5028892;28;20088;-62
2023/06/06 09:27:28;;;;;;;13.25;11.32;;;;;;;;;;5028829;28;20025;-61
2023/06/06 09:29:54;;;;;;;13.60;10.95;;;;;;;;;;5016160;28;20026;-64
2023/06/06 09:32:30;;;;;;;15.20;10.23;;;;;;;;;;5028692;28;20464;-62
2023/06/06 09:35:05;;;;;;;12.27;9.77;;;;;;;;;;5028873;28;20032;-62
2023/06/06 09:37:32;;;;;;;14.55;9.48;;;;;;;;;;5028560;28;20022;-68
2023/06/06 09:40:17;;;;;;;13.13;10.05;;;;;;;;;;5028889;28;20037;-62
2023/06/06 09:42:45;;;;;;;16.02;10.20;;;;;;;;;;5028742;28;20042;-61
2023/06/06 09:45:14;;;;;;;12.98;10.20;;;;;;;;;;5028637;28;20052;-62
2023/06/06 09:47:44;;;;;;;16.40;11.60;;;;;;;;;;5016064;28;20113;-61
2023/06/06 09:50:11;;;;;;;13.98;10.57;;;;;;;;;;5028619;28;20030;-66
2023/06/06 09:52:37;;;;;;;16.08;12.18;;;;;;;;;;5029040;28;20379;-61
2023/06/06 09:55:07;;;;;;;14.77;11.27;;;;;;;;;;5028316;28;20477;-70
2023/06/06 09:57:37;;;;;;;13.07;11.70;;;;;;;;;;5028416;28;20087;-61
2023/06/06 10:00:09;;;;;;;17.00;12.20;;;;;;;;;;5028570;28;20030;-62
2023/06/06 10:02:35;;;;;;;15.10;12.98;;;;;;;;;;5028375;28;20514;-70
2023/06/06 10:05:02;;;;;;;15.98;11.52;;;;;;;;;;5030947;28;20024;-63
2023/06/06 10:07:29;;;;;;;15.15;12.55;;;;;;;;;;5032282;28;20057;-66
2023/06/06 10:09:56;;;;;;;16.95;12.80;;;;;;;;;;5032202;28;20087;-61
2023/06/06 10:12:22;;;;;;;13.32;10.85;;;;;;;;;;5032094;28;20037;-63
2023/06/06 10:14:49;;;;;;;12.93;11.55;;;;;;;;;;5032264;28;20025;-62
2023/06/06 10:17:15;;;;;;;13.77;11.25;;;666.20;2432.00;;;;;;5032185;28;20026;-63
2023/06/06 10:19:42;;;;;;;15.60;11.82;;;666.00;2432.00;;;;;;5032169;28;20418;-62
2023/06/06 10:22:07;;;;;;;16.33;12.52;;;666.20;2432.00;;;;;;5032278;28;20021;-62
2023/06/06 10:24:33;;;;;;;13.35;11.95;;;666.20;2432.00;;;;;;5031992;28;20033;-69
2023/06/06 10:27:20;;;;;;;16.00;12.50;;;666.30;2432.00;;;;;;5031629;28;20117;-64
2023/06/06 10:30:02;;;;;;;14.90;12.98;;;666.50;2432.00;;;;;;5031696;28;20108;-62
2023/06/06 10:33:01;;;;;;;16.80;11.63;;;665.90;2432.00;;;;;;5031863;28;20038;-62
2023/06/06 10:35:28;;;;;;;14.43;11.43;;;640.70;2432.00;;;;;;5032004;28;20072;-61
2023/06/06 10:38:08;;;;;;;18.58;11.25;;;640.40;2432.00;;;;;;5032304;28;20037;-62
2023/06/06 10:41:00;;;;;;;17.42;11.98;;;640.00;2432.00;;;;;;5031098;28;20682;-64
2023/06/06 10:43:41;;;;;;;14.10;12.43;;;615.10;2432.00;;;;;;5031065;28;20038;-63
2023/06/06 10:46:07;;;;;;;15.30;10.98;;;615.30;2432.00;;;;;;5031249;28;20491;-62
2023/06/06 10:48:40;;;;;;;16.35;12.63;;;615.30;2432.00;;;;;;5031681;28;20025;-62
2023/06/06 10:51:07;;;;;;;15.65;13.55;;;615.10;2432.00;;;;;;5031652;28;20026;-62
2023/06/06 10:53:34;;;;;;;16.52;14.43;;;614.80;2432.00;;;;;;5031392;28;20068;-61
2023/06/06 10:56:00;;;;;;;18.15;14.23;;;614.60;2432.00;;;;;;5031445;28;20032;-62
2023/06/06 10:58:32;;;;;;;16.00;14.05;;;614.50;2432.00;;;;;;5031847;28;20421;-62
2023/06/06 11:01:00;;;;;;;17.05;14.32;;;614.40;2432.00;;;;;;5031101;28;20108;-62
2023/06/06 11:03:34;;;;;;;15.07;13.57;;;614.60;2432.00;;;;;;5030848;28;20029;-59
2023/06/06 11:06:16;;;;;;;20.77;14.13;;;614.70;2432.00;;;;;;5030851;28;20068;-59
2023/06/06 11:08:57;;;;;;;19.10;15.10;;;614.80;2432.00;;;;;;5029811;28;20038;-59
2023/06/06 11:11:26;;;;;;;17.33;13.95;;;614.80;2432.00;;;;;;5030492;28;20030;-59
2023/06/06 11:14:05;;;;;;;17.38;14.32;;;615.00;2432.00;;;;;;5030736;28;20025;-59
2023/06/06 11:16:40;;;;;;;19.23;13.70;;;615.00;2432.00;;;;;;5029192;28;20422;-59
2023/06/06 11:19:08;;;;;;;15.30;13.65;;;640.20;2432.00;;;;;;5028343;28;20021;-67
2023/06/06 11:21:36;;;;;;;17.35;14.00;;;640.30;2432.00;;;;;;5030678;28;20030;-59
2023/06/06 11:24:03;;;;;;;15.45;13.52;;;640.40;2432.00;;;;;;5030128;28;20034;-68
2023/06/06 11:26:28;;;;;;;16.20;13.35;;;640.60;2432.00;;;;;;5025005;28;20020;-62
2023/06/06 11:28:57;;;;;;;13.43;9.20;;;665.70;2432.00;;;;;;5030548;28;20108;-65
2023/06/06 11:31:24;;;;;;;14.25;11.50;;;665.70;2432.00;;;;;;5030388;28;20399;-63
2023/06/06 11:33:50;;;;;;;15.48;13.95;;;665.80;2432.00;;;;;;5030664;28;20476;-62
2023/06/06 11:36:18;;;;;;;17.05;13.07;;;640.90;2432.00;;;;;;5031075;28;20116;-62
2023/06/06 11:38:43;;;;;;;15.52;13.57;;;665.70;2432.00;;;;;;5030494;28;20369;-61
2023/06/06 11:41:09;;;;;;;14.02;10.88;;;640.70;2432.00;;;;;;5029621;28;20052;-61
2023/06/06 11:43:35;;;;;;;14.23;11.98;;;640.40;2432.00;;;;;;5029965;28;20026;-68
2023/06/06 11:46:05;;;;;;;15.13;12.32;;;640.30;2432.00;;;;;;5029286;28;20036;-66
2023/06/06 11:48:32;;;;;;;14.30;10.38;;;640.20;2432.00;;;;;;5029600;28;20427;-66
2023/06/06 11:50:57;;;;;;;12.27;8.38;;;640.30;2432.00;;;;;;5028639;28;20041;-62
2023/06/06 11:53:30;;;;;;;9.60;7.40;;;640.20;2432.00;;;;;;5030197;28;20014;-62
2023/06/06 11:55:56;;;;;;;;;;;640.10;2432.00;;;;;;5030863;28;20029;-59
2023/06/06 11:58:24;;;;;;;10.48;7.25;;;615.30;2432.00;;;;;;5027961;28;19947;-60
2023/06/06 12:00:56;;;;;;;15.85;8.43;;;615.20;2432.00;;;;;;5028819;28;20029;-60
2023/06/06 12:03:22;;;;;;;8.80;7.88;;;615.30;2432.00;;;;;;5028263;28;20037;-62
2023/06/06 12:06:04;;;;;;;9.07;8.05;;;615.30;2432.00;;;;;;5028692;28;20030;-57
2023/06/06 12:08:35;;;;;;;10.15;6.95;;;640.00;2432.00;;;;;;5028973;28;20113;-59
2023/06/06 12:11:22;;;;;;;8.27;7.43;;;640.30;2432.00;;;;;;5028016;28;20103;-59
2023/06/06 12:13:48;;;;;;;10.02;7.90;;;640.60;2432.00;;;;;;5028209;28;20076;-67
2023/06/06 12:16:27;;;;;;;11.02;8.57;;;640.40;2432.00;;;;;;5028610;28;20026;-57
2023/06/06 12:18:54;;;;;;;11.30;9.00;;;640.90;2432.00;;;;;;5028230;28;20513;-59
2023/06/06 12:21:21;;;;;;;12.48;7.90;;;640.90;2432.00;;;;;;5028831;28;20037;-59
2023/06/06 12:23:47;;;;;;;9.38;7.25;;;665.60;2432.00;;;;;;5028185;28;20033;-59
2023/06/06 12:26:16;;;;;;;7.75;6.38;;;665.90;2432.00;;;;;;5028368;28;20403;-59
2023/06/06 12:28:54;;;;;;;8.32;6.88;;;665.90;2432.00;;;;;;5027661;28;20022;-59
2023/06/06 12:31:21;;;;;;;8.38;7.28;;;665.90;2432.00;;;;;;5028096;28;20041;-56
2023/06/06 12:33:47;;;;;;;9.77;7.28;;;640.90;2432.00;;;;;;5028250;28;20491;-58
2023/06/06 12:36:20;;;;;;;8.20;7.40;;;665.60;2432.00;;;;;;5027306;28;20033;-65
2023/06/06 12:39:13;;;;;;;10.05;6.88;;;640.60;2432.00;;;;;;5028245;28;20029;-62